createdAt,value
2024-02-03T00:01:22.171Z,92510.84
2024-02-03T00:04:07.317Z,92518.06
2024-02-03T00:06:52.251Z,92508.50
2024-02-03T00:09:37.224Z,92509.06
2024-02-03T00:12:22.105Z,92506.59
2024-02-03T00:15:07.144Z,92511.94
2024-02-03T00:17:51.980Z,92510.19
2024-02-03T00:20:36.885Z,92501.00
2024-02-03T00:23:21.863Z,92503.47
2024-02-03T00:26:07.051Z,92498.78
2024-02-03T00:28:52.056Z,92496.94
2024-02-03T00:31:37.093Z,92504.84
2024-02-03T00:34:22.233Z,92485.59
2024-02-03T00:37:07.211Z,92487.63
2024-02-03T00:39:52.397Z,92495.25
2024-02-03T00:42:37.354Z,92488.59
2024-02-03T00:45:22.426Z,92482.59
2024-02-03T00:48:07.620Z,92494.22
2024-02-03T00:50:52.460Z,92484.81
2024-02-03T00:53:37.380Z,92488.38
2024-02-03T00:56:22.341Z,92481.22
2024-02-03T00:59:07.322Z,92479.53
2024-02-03T01:01:52.410Z,92480.13
2024-02-03T01:04:37.338Z,92474.66
2024-02-03T01:07:22.247Z,92475.72
2024-02-03T01:10:07.234Z,92477.78
2024-02-03T01:12:52.236Z,92478.34
2024-02-03T01:15:37.329Z,92472.47
2024-02-03T01:18:22.463Z,92474.75
2024-02-03T01:21:07.287Z,92473.44
2024-02-03T01:23:52.164Z,92470.56
2024-02-03T01:26:36.998Z,92466.88
2024-02-03T01:29:21.962Z,92468.84
2024-02-03T01:32:06.894Z,92468.78
2024-02-03T01:34:52.098Z,92467.75
2024-02-03T01:37:37.047Z,92472.31
2024-02-03T01:40:22.091Z,92466.88
2024-02-03T01:43:07.007Z,92474.06
2024-02-03T01:45:51.887Z,92467.75
2024-02-03T01:48:36.985Z,92469.91
2024-02-03T01:51:21.798Z,92477.69
2024-02-03T01:54:06.913Z,92464.19
2024-02-03T01:56:51.915Z,92462.06
2024-02-03T01:59:36.901Z,92466.41
2024-02-03T02:02:21.794Z,92457.91
2024-02-03T02:05:06.618Z,92460.81
2024-02-03T02:07:51.767Z,92464.19
2024-02-03T02:10:36.710Z,92454.38
2024-02-03T02:13:21.822Z,92458.78
2024-02-03T02:16:06.780Z,92463.22
2024-02-03T02:18:51.902Z,92461.72
2024-02-03T02:21:37.007Z,92456.56
2024-02-03T02:24:21.874Z,92453.47
2024-02-03T02:27:06.927Z,92453.31
2024-02-03T02:29:51.782Z,92453.34
2024-02-03T02:32:37.137Z,92447.38
2024-02-03T02:35:21.732Z,92450.25
2024-02-03T02:38:06.586Z,92456.34
2024-02-03T02:40:51.471Z,92450.25
2024-02-03T02:43:36.537Z,92446.38
2024-02-03T02:46:21.605Z,92440.22
2024-02-03T02:49:06.627Z,92440.25
2024-02-03T02:51:51.459Z,92441.38
2024-02-03T02:54:36.423Z,92439.09
2024-02-03T02:57:21.428Z,92436.06
2024-02-03T03:00:06.488Z,92432.97
2024-02-03T03:02:51.322Z,92433.03
2024-02-03T03:05:36.324Z,92426.06
2024-02-03T03:08:21.318Z,92443.91
2024-02-03T03:11:06.190Z,92431.53
2024-02-03T03:13:51.286Z,92428.88
2024-02-03T03:16:36.209Z,92423.88
2024-02-03T03:19:21.268Z,92420.47
2024-02-03T03:22:06.443Z,92417.78
2024-02-03T03:24:51.586Z,92420.88
2024-02-03T03:27:36.558Z,92420.03
2024-02-03T03:30:21.522Z,92423.22
2024-02-03T03:33:06.492Z,92418.84
2024-02-03T03:35:51.547Z,92414.84
2024-02-03T03:38:36.425Z,92415.44
2024-02-03T03:41:21.384Z,92414.94
2024-02-03T03:44:06.299Z,92411.38
2024-02-03T03:46:51.241Z,92413.94
2024-02-03T03:49:36.283Z,92413.28
2024-02-03T03:52:21.165Z,92406.72
2024-02-03T03:55:06.225Z,92400.75
2024-02-03T03:57:51.255Z,92401.59
2024-02-03T04:00:36.240Z,92397.69
2024-02-03T04:03:21.083Z,92392.75
2024-02-03T04:06:06.099Z,92401.78
2024-02-03T04:08:51.031Z,92394.47
2024-02-03T04:11:36.210Z,92395.19
2024-02-03T04:14:20.940Z,92398.94
2024-02-03T04:17:05.789Z,92401.81
2024-02-03T04:19:51.076Z,92407.34
2024-02-03T04:22:35.825Z,92402.66
2024-02-03T04:25:20.750Z,92403.28
2024-02-03T04:28:05.823Z,92395.03
2024-02-03T04:30:51.004Z,92396.63
2024-02-03T04:33:36.017Z,92394.22
2024-02-03T04:36:20.811Z,92396.88
2024-02-03T04:39:05.781Z,92394.47
2024-02-03T04:41:50.810Z,92388.16
2024-02-03T04:44:35.780Z,92387.41
2024-02-03T04:47:20.742Z,92391.13
2024-02-03T04:50:05.833Z,92391.75
2024-02-03T04:52:50.712Z,92381.72
2024-02-03T04:55:35.809Z,92387.34
2024-02-03T04:58:20.811Z,92383.19
2024-02-03T05:01:06.070Z,92393.38
2024-02-03T05:03:51.388Z,92387.78
2024-02-03T05:06:36.386Z,92383.22
2024-02-03T05:09:21.336Z,92384.97
2024-02-03T05:12:06.154Z,92378.84
2024-02-03T05:14:51.046Z,92386.69
2024-02-03T05:17:35.992Z,92389.91
2024-02-03T05:20:20.930Z,92382.63
2024-02-03T05:23:05.887Z,92383.66
2024-02-03T05:25:53.635Z,92387.16
2024-02-03T05:28:38.874Z,92382.53
2024-02-03T05:31:23.709Z,92387.16
2024-02-03T05:34:08.697Z,92383.84
2024-02-03T05:36:53.734Z,92385.75
2024-02-03T05:39:38.591Z,92384.22
2024-02-03T05:42:24.129Z,92380.63
2024-02-03T05:45:08.926Z,92387.34
2024-02-03T05:47:54.028Z,92383.66
2024-02-03T05:50:38.890Z,92386.09
2024-02-03T05:53:23.889Z,92394.22
2024-02-03T05:56:08.893Z,92388.72
2024-02-03T05:59:07.945Z,92389.00
2024-02-03T06:02:00.443Z,92385.34
2024-02-03T06:04:46.290Z,92383.03
2024-02-03T06:07:31.220Z,92388.63
2024-02-03T06:10:16.078Z,92383.53
2024-02-03T06:13:01.073Z,92387.38
2024-02-03T06:15:46.010Z,92398.00
2024-02-03T06:18:31.082Z,92397.94
2024-02-03T06:21:15.922Z,92395.25
2024-02-03T06:24:00.881Z,92401.66
2024-02-03T06:26:45.878Z,92395.63
2024-02-03T06:29:30.832Z,92399.56
2024-02-03T06:32:16.378Z,92403.16
2024-02-03T06:35:01.496Z,92399.16
2024-02-03T06:37:46.370Z,92405.03
2024-02-03T06:40:31.475Z,92408.91
2024-02-03T06:43:16.486Z,92410.66
2024-02-03T06:46:01.466Z,92410.88
2024-02-03T06:48:46.524Z,92411.31
2024-02-03T06:51:31.534Z,92411.75
2024-02-03T06:54:16.864Z,92413.88
2024-02-03T06:57:01.872Z,92412.59
2024-02-03T06:59:47.782Z,92416.81
2024-02-03T07:02:33.475Z,92418.09
2024-02-03T07:05:18.333Z,92421.06
2024-02-03T07:08:03.385Z,92422.53
2024-02-03T07:10:48.337Z,92427.41
2024-02-03T07:13:33.543Z,92422.53
2024-02-03T07:16:18.412Z,92423.81
2024-02-03T07:19:03.467Z,92414.97
2024-02-03T07:21:48.426Z,92412.09
2024-02-03T07:24:33.428Z,92412.59
2024-02-03T07:27:18.426Z,92404.88
2024-02-03T07:30:03.415Z,92408.56
2024-02-03T07:32:48.559Z,92405.97
2024-02-03T07:35:33.802Z,92406.66
2024-02-03T07:38:18.532Z,92403.31
2024-02-03T07:41:03.504Z,92404.03
2024-02-03T07:43:48.517Z,92403.19
2024-02-03T07:46:33.388Z,92400.75
2024-02-03T07:49:18.498Z,92400.38
2024-02-03T07:52:04.441Z,92407.34
2024-02-03T07:54:50.167Z,92404.28
2024-02-03T07:57:35.165Z,92402.88
2024-02-03T08:00:19.972Z,92404.56
2024-02-03T08:03:04.841Z,92401.03
2024-02-03T08:05:49.787Z,92407.97
2024-02-03T08:08:34.854Z,92405.91
2024-02-03T08:11:19.776Z,92404.97
2024-02-03T08:14:04.640Z,92394.03
2024-02-03T08:16:49.949Z,92399.31
2024-02-03T08:19:34.853Z,92404.38
2024-02-03T08:22:19.886Z,92394.75
2024-02-03T08:25:04.636Z,92395.56
2024-02-03T08:27:49.706Z,92399.53
2024-02-03T08:30:34.651Z,92390.34
2024-02-03T08:33:19.672Z,92388.59
2024-02-03T08:36:07.091Z,92387.22
2024-02-03T08:38:53.641Z,92386.03
2024-02-03T08:41:38.520Z,92387.50
2024-02-03T08:44:23.708Z,92387.13
2024-02-03T08:47:08.638Z,92382.41
2024-02-03T08:49:53.749Z,92379.56
2024-02-03T08:52:38.610Z,92379.94
2024-02-03T08:55:23.899Z,92376.88
2024-02-03T08:58:08.736Z,92376.38
2024-02-03T09:00:53.932Z,92376.97
2024-02-03T09:03:38.950Z,92373.69
2024-02-03T09:06:23.910Z,92379.69
2024-02-03T09:09:08.921Z,92374.66
2024-02-03T09:11:53.935Z,92372.75
2024-02-03T09:14:38.880Z,92378.06
2024-02-03T09:17:23.853Z,92363.47
2024-02-03T09:20:09.102Z,92368.47
2024-02-03T09:22:54.080Z,92368.28
2024-02-03T09:25:39.848Z,92373.63
2024-02-03T09:28:25.688Z,92373.53
2024-02-03T09:31:10.657Z,92369.09
2024-02-03T09:33:55.903Z,92365.97
2024-02-03T09:39:28.247Z,92358.59
2024-02-03T09:42:13.399Z,92365.06
2024-02-03T09:44:58.172Z,92364.06
2024-02-03T09:47:43.243Z,92358.94
2024-02-03T09:50:28.221Z,92357.81
2024-02-03T09:53:13.120Z,92352.34
2024-02-03T09:55:57.933Z,92354.22
2024-02-03T09:58:43.255Z,92351.19
2024-02-03T10:01:28.001Z,92349.16
2024-02-03T10:04:12.858Z,92347.94
2024-02-03T10:06:57.935Z,92345.19
2024-02-03T10:12:30.220Z,92333.31
2024-02-03T10:15:15.301Z,92340.56
2024-02-03T10:18:00.488Z,92329.19
2024-02-03T10:20:46.075Z,92323.25
2024-02-03T10:23:31.068Z,92328.00
2024-02-03T10:26:16.136Z,92319.78
2024-02-03T10:29:00.968Z,92316.88
2024-02-03T10:31:45.983Z,92316.00
2024-02-03T10:34:31.014Z,92318.78
2024-02-03T10:37:16.053Z,92317.06
2024-02-03T10:40:01.346Z,92316.13
2024-02-03T10:42:46.251Z,92315.22
2024-02-03T10:45:31.375Z,92312.38
2024-02-03T10:48:17.392Z,92300.72
2024-02-03T10:51:02.719Z,92299.09
2024-02-03T10:53:47.687Z,92288.25
2024-02-03T10:56:32.544Z,92294.44
2024-02-03T10:59:17.542Z,92290.28
2024-02-03T11:02:02.446Z,92285.63
2024-02-03T11:04:47.447Z,92281.81
2024-02-03T11:07:32.434Z,92276.34
2024-02-03T11:10:17.238Z,92272.47
2024-02-03T11:13:02.344Z,92273.44
2024-02-03T11:15:47.503Z,92263.66
2024-02-03T11:18:32.510Z,92265.59
2024-02-03T11:21:17.279Z,92260.38
2024-02-03T11:24:02.294Z,92257.75
2024-02-03T11:26:47.285Z,92241.38
2024-02-03T11:29:32.346Z,92238.19
2024-02-03T11:32:17.402Z,92244.28
2024-02-03T11:35:02.457Z,92232.16
2024-02-03T11:37:47.220Z,92231.34
2024-02-03T11:40:32.133Z,92229.78
2024-02-03T11:43:17.216Z,92227.78
2024-02-03T11:46:02.211Z,92236.75
2024-02-03T11:48:47.878Z,92225.19
2024-02-03T11:51:32.809Z,92223.72
2024-02-03T11:54:17.757Z,92217.75
2024-02-03T11:57:02.731Z,92215.09
2024-02-03T11:59:47.694Z,92211.31
2024-02-03T12:02:32.665Z,92217.91
2024-02-03T12:05:17.731Z,92211.47
2024-02-03T12:08:02.817Z,92208.94
2024-02-03T12:10:47.667Z,92204.41
2024-02-03T12:13:32.716Z,92203.13
2024-02-03T12:16:17.733Z,92196.34
2024-02-03T12:19:02.932Z,92198.00
2024-02-03T12:21:48.364Z,92199.41
2024-02-03T12:24:33.261Z,92191.50
2024-02-03T12:27:18.326Z,92188.75
2024-02-03T12:30:03.452Z,92186.22
2024-02-03T12:32:49.489Z,92181.66
2024-02-03T12:35:34.326Z,92174.28
2024-02-03T12:38:19.360Z,92177.63
2024-02-03T12:41:04.294Z,92168.69
2024-02-03T12:43:49.393Z,92168.69
2024-02-03T12:46:34.417Z,92160.06
2024-02-03T12:49:19.583Z,92159.50
2024-02-03T12:52:04.666Z,92158.94
2024-02-03T12:54:49.697Z,92162.97
2024-02-03T12:57:34.571Z,92159.06
2024-02-03T13:00:19.423Z,92152.09
2024-02-03T13:03:04.472Z,92158.31
2024-02-03T13:05:49.466Z,92154.94
2024-02-03T13:08:34.315Z,92152.94
2024-02-03T13:11:22.260Z,92149.38
2024-02-03T13:14:07.890Z,92140.22
2024-02-03T13:16:52.881Z,92137.75
2024-02-03T13:19:37.971Z,92135.41
2024-02-03T13:22:22.900Z,92138.00
2024-02-03T13:25:08.120Z,92129.00
2024-02-03T13:27:53.056Z,92137.25
2024-02-03T13:30:38.071Z,92127.22
2024-02-03T13:33:22.946Z,92126.16
2024-02-03T13:36:07.876Z,92116.75
2024-02-03T13:38:52.840Z,92115.41
2024-02-03T13:41:37.903Z,92113.38
2024-02-03T13:44:22.935Z,92110.50
2024-02-03T13:47:07.852Z,92103.78
2024-02-03T13:49:52.842Z,92102.31
2024-02-03T13:52:37.714Z,92103.25
2024-02-03T13:55:22.663Z,92113.50
2024-02-03T13:58:07.704Z,92098.78
2024-02-03T14:00:52.733Z,92104.16
2024-02-03T14:03:37.600Z,92114.78
2024-02-03T14:06:22.651Z,92108.94
2024-02-03T14:09:07.513Z,92111.88
2024-02-03T14:11:55.215Z,92107.28
2024-02-03T14:14:40.318Z,92102.38
2024-02-03T14:17:25.211Z,92102.41
2024-02-03T14:20:10.278Z,92106.94
2024-02-03T14:22:55.285Z,92100.81
2024-02-03T14:25:40.132Z,92100.34
2024-02-03T14:28:25.166Z,92094.06
2024-02-03T14:31:10.095Z,92087.78
2024-02-03T14:33:55.160Z,92094.53
2024-02-03T14:36:39.918Z,92093.50
2024-02-03T14:39:24.886Z,92090.72
2024-02-03T14:42:09.888Z,92092.16
2024-02-03T14:44:54.836Z,92084.97
2024-02-03T14:47:39.778Z,92091.69
2024-02-03T14:50:24.822Z,92092.94
2024-02-03T14:53:09.831Z,92087.16
2024-02-03T14:55:54.743Z,92081.25
2024-02-03T14:58:39.520Z,92082.03
2024-02-03T15:01:24.651Z,92089.09
2024-02-03T15:04:09.523Z,92091.13
2024-02-03T15:06:54.398Z,92072.88
2024-02-03T15:09:39.288Z,92082.00
2024-02-03T15:12:24.272Z,92090.06
2024-02-03T15:15:09.158Z,92085.41
2024-02-03T15:17:54.185Z,92087.16
2024-02-03T15:20:39.088Z,92084.50
2024-02-03T15:23:24.149Z,92081.53
2024-02-03T15:26:09.088Z,92095.56
2024-02-03T15:28:53.881Z,92096.09
2024-02-03T15:31:38.979Z,92102.88
2024-02-03T15:34:23.861Z,92102.06
2024-02-03T15:37:08.970Z,92095.94
2024-02-03T15:39:53.842Z,92104.28
2024-02-03T15:42:48.187Z,92112.22
2024-02-03T15:45:40.186Z,92109.69
2024-02-03T15:48:26.754Z,92104.81
2024-02-03T15:51:11.647Z,92108.69
2024-02-03T15:53:56.568Z,92110.19
2024-02-03T15:56:41.584Z,92107.97
2024-02-03T15:59:26.415Z,92112.13
2024-02-03T16:02:11.573Z,92117.84
2024-02-03T16:04:56.711Z,92119.94
2024-02-03T16:07:41.629Z,92128.47
2024-02-03T16:10:26.589Z,92128.16
2024-02-03T16:13:11.611Z,92123.41
2024-02-03T16:15:56.734Z,92128.56
2024-02-03T16:18:41.619Z,92129.44
2024-02-03T16:21:26.725Z,92135.09
2024-02-03T16:24:11.568Z,92136.13
2024-02-03T16:26:56.499Z,92132.69
2024-02-03T16:29:41.368Z,92130.16
2024-02-03T16:32:26.501Z,92131.72
2024-02-03T16:35:11.782Z,92128.69
2024-02-03T16:37:56.284Z,92139.66
2024-02-03T16:40:41.477Z,92143.28
2024-02-03T16:43:26.366Z,92143.00
2024-02-03T16:46:11.384Z,92160.59
2024-02-03T16:48:56.388Z,92167.34
2024-02-03T16:51:41.467Z,92176.75
2024-02-03T16:54:26.564Z,92176.84
2024-02-03T16:57:11.612Z,92181.44
2024-02-03T16:59:56.599Z,92179.19
2024-02-03T17:02:41.587Z,92172.03
2024-02-03T17:05:26.622Z,92173.47
2024-02-03T17:08:11.632Z,92168.13
2024-02-03T17:10:56.621Z,92171.31
2024-02-03T17:13:41.584Z,92176.53
2024-02-03T17:16:26.595Z,92179.34
2024-02-03T17:19:11.953Z,92182.69
2024-02-03T17:21:56.729Z,92178.69
2024-02-03T17:24:41.582Z,92179.97
2024-02-03T17:27:26.534Z,92188.97
2024-02-03T17:30:11.464Z,92182.59
2024-02-03T17:32:56.429Z,92191.81
2024-02-03T17:35:41.659Z,92193.69
2024-02-03T17:38:26.634Z,92198.78
2024-02-03T17:41:11.620Z,92196.47
2024-02-03T17:43:56.565Z,92200.25
2024-02-03T17:46:41.502Z,92208.91
2024-02-03T17:49:26.518Z,92206.13
2024-02-03T17:52:11.371Z,92213.97
2024-02-03T17:54:56.509Z,92212.66
2024-02-03T17:57:41.327Z,92208.25
2024-02-03T18:00:26.341Z,92217.69
2024-02-03T18:03:11.370Z,92217.31
2024-02-03T18:05:56.444Z,92216.72
2024-02-03T18:08:41.550Z,92219.38
2024-02-03T18:11:26.509Z,92223.13
2024-02-03T18:14:11.574Z,92214.97
2024-02-03T18:16:56.485Z,92226.41
2024-02-03T18:19:41.661Z,92223.06
2024-02-03T18:22:26.462Z,92219.56
2024-02-03T18:25:11.486Z,92218.91
2024-02-03T18:27:56.647Z,92223.09
2024-02-03T18:30:41.419Z,92229.91
2024-02-03T18:33:26.459Z,92228.63
2024-02-03T18:36:11.228Z,92229.63
2024-02-03T18:38:56.133Z,92229.25
2024-02-03T18:41:41.096Z,92237.78
2024-02-03T18:44:26.052Z,92227.38
2024-02-03T18:47:10.905Z,92226.47
2024-02-03T18:49:55.751Z,92235.06
2024-02-03T18:52:40.776Z,92238.75
2024-02-03T18:55:25.666Z,92235.41
2024-02-03T18:58:10.645Z,92238.06
2024-02-03T19:00:55.778Z,92236.94
2024-02-03T19:03:40.735Z,92240.38
2024-02-03T19:06:25.760Z,92231.63
2024-02-03T19:09:10.615Z,92245.53
2024-02-03T19:11:55.539Z,92239.69
2024-02-03T19:14:40.548Z,92251.28
2024-02-03T19:17:25.580Z,92243.47
2024-02-03T19:20:10.698Z,92244.47
2024-02-03T19:22:55.730Z,92246.81
2024-02-03T19:25:40.751Z,92238.78
2024-02-03T19:28:25.822Z,92249.22
2024-02-03T19:31:10.833Z,92246.50
2024-02-03T19:33:55.899Z,92247.63
2024-02-03T19:36:40.986Z,92250.94
2024-02-03T19:39:25.907Z,92250.31
2024-02-03T19:42:10.802Z,92248.97
2024-02-03T19:44:55.678Z,92256.13
2024-02-03T19:47:40.903Z,92253.19
2024-02-03T19:50:27.093Z,92250.84
2024-02-03T19:53:12.209Z,92257.75
2024-02-03T19:55:57.183Z,92258.41
2024-02-03T19:58:42.091Z,92255.31
2024-02-03T20:01:27.156Z,92259.53
2024-02-03T20:04:12.089Z,92266.13
2024-02-03T20:06:57.335Z,92268.38
2024-02-03T20:09:42.023Z,92267.72
2024-02-03T20:12:27.172Z,92263.09
2024-02-03T20:15:12.135Z,92256.31
2024-02-03T20:17:57.110Z,92252.84
2024-02-03T20:20:42.026Z,92255.31
2024-02-03T20:23:26.992Z,92254.56
2024-02-03T20:26:12.072Z,92262.13
2024-02-03T20:28:56.862Z,92256.84
2024-02-03T20:31:41.714Z,92259.94
2024-02-03T20:34:26.841Z,92260.69
2024-02-03T20:37:11.891Z,92261.72
2024-02-03T20:39:56.958Z,92264.00
2024-02-03T20:42:41.808Z,92250.63
2024-02-03T20:45:26.985Z,92258.28
2024-02-03T20:48:11.860Z,92252.06
2024-02-03T20:50:57.133Z,92258.13
2024-02-03T20:53:41.876Z,92251.78
2024-02-03T20:56:26.881Z,92257.31
2024-02-03T20:59:11.852Z,92257.66
2024-02-03T21:01:56.958Z,92259.00
2024-02-03T21:04:41.965Z,92255.75
2024-02-03T21:07:26.798Z,92249.44
2024-02-03T21:10:11.886Z,92264.16
2024-02-03T21:12:56.663Z,92262.22
2024-02-03T21:15:41.566Z,92254.00
2024-02-03T21:18:26.657Z,92259.16
2024-02-03T21:21:11.714Z,92258.41
2024-02-03T21:23:56.759Z,92249.22
2024-02-03T21:26:41.826Z,92255.66
2024-02-03T21:29:26.873Z,92249.63
2024-02-03T21:32:11.812Z,92250.28
2024-02-03T21:34:56.950Z,92258.66
2024-02-03T21:37:41.746Z,92255.31
2024-02-03T21:40:26.681Z,92251.50
2024-02-03T21:43:11.670Z,92243.00
2024-02-03T21:45:56.661Z,92236.66
2024-02-03T21:48:41.723Z,92236.44
2024-02-03T21:51:26.658Z,92243.72
2024-02-03T21:54:11.609Z,92235.31
2024-02-03T21:56:56.618Z,92235.63
2024-02-03T21:59:41.658Z,92236.19
2024-02-03T22:02:26.503Z,92235.25
2024-02-03T22:05:11.538Z,92228.34
2024-02-03T22:07:56.512Z,92241.47
2024-02-03T22:10:41.380Z,92233.84
2024-02-03T22:13:26.381Z,92238.94
2024-02-03T22:16:11.278Z,92231.00
2024-02-03T22:18:56.367Z,92234.03
2024-02-03T22:21:41.436Z,92230.16
2024-02-03T22:24:26.339Z,92230.28
2024-02-03T22:27:11.295Z,92228.34
2024-02-03T22:29:56.310Z,92227.22
2024-02-03T22:32:41.446Z,92222.44
2024-02-03T22:35:26.298Z,92216.69
2024-02-03T22:38:11.217Z,92225.28
2024-02-03T22:40:56.072Z,92223.50
2024-02-03T22:43:41.008Z,92230.38
2024-02-03T22:46:26.063Z,92223.66
2024-02-03T22:49:11.168Z,92225.75
2024-02-03T22:51:55.862Z,92227.22
2024-02-03T22:54:41.127Z,92234.31
2024-02-03T22:57:26.168Z,92231.50
2024-02-03T23:00:11.042Z,92229.97
2024-02-03T23:02:56.033Z,92226.25
2024-02-03T23:05:41.129Z,92227.63
2024-02-03T23:08:25.889Z,92222.59
2024-02-03T23:11:10.808Z,92223.81
2024-02-03T23:13:55.884Z,92233.69
2024-02-03T23:16:40.792Z,92228.94
2024-02-03T23:19:25.975Z,92235.44
2024-02-03T23:22:10.824Z,92232.78
2024-02-03T23:24:55.673Z,92240.34
2024-02-03T23:27:40.799Z,92235.28
2024-02-03T23:30:25.576Z,92229.38
2024-02-03T23:33:10.745Z,92238.44
2024-02-03T23:35:55.541Z,92245.38
2024-02-03T23:38:40.577Z,92242.63
2024-02-03T23:41:25.563Z,92249.34
2024-02-03T23:44:10.633Z,92246.41
2024-02-03T23:46:55.549Z,92242.34
2024-02-03T23:49:40.634Z,92235.66
2024-02-03T23:52:25.849Z,92237.84
2024-02-03T23:55:10.706Z,92231.50
2024-02-03T23:57:55.795Z,92231.03
